METAR OBSERVATIONS
Looking Back 6 hours

  • KPBF 280653Z AUTO 14007KT 9SM OVC100 14/13 A2990 RMK AO2 SLP124 T01440133 =
  • KPBF 280553Z AUTO 12005KT 4SM BR SCT002 OVC095 12/11 A2992 RMK AO2 SLP131 T01170111 10117 20106 401170089 58006 =
  • KPBF 280548Z AUTO 12003KT 2SM BR SCT002 OVC095 12/11 A2992 RMK AO2 =
  • KPBF 280545Z AUTO 11003KT 1 3/4SM BR BKN002 OVC100 12/11 A2992 RMK AO2 T01170111 =
  • KPBF 280516Z AUTO 00000KT 2 1/2SM BR OVC002 11/11 A2994 RMK AO2 T01110106 =
  • KPBF 280507Z AUTO 00000KT 1 1/2SM BR OVC002 12/11 A2994 RMK AO2 T01170106 =
  • KPBF 280453Z AUTO 32003KT 1/2SM FG VV002 11/10 A2994 RMK AO2 SLP138 T01110100 =
  • KPBF 280445Z AUTO 00000KT 1/2SM FG VV001 11/10 A2994 RMK AO2 T01110100 =
  • KPBF 280434Z AUTO 08004KT 1/2SM FG VV002 11/10 A2994 RMK AO2 T01110100 =
  • KPBF 280353Z AUTO 00000KT 1/4SM FG VV002 12/11 A2994 RMK AO2 SLP138 T01170111 =
  • KPBF 280253Z AUTO 13003KT 1/4SM FG VV002 12/11 A2994 RMK AO2 SLP137 T01170106 56006 =
  • KPBF 280153Z AUTO 09004KT 1/4SM FG VV002 11/11 A2994 RMK AO2 SLP138 T01110106 =
  • KPBF 280118Z AUTO 10007KT 1/4SM FG VV002 11/11 A2994 RMK AO2 T01110106 =
    ________________________________________